臺東航空站 - ATIS

METAR RCFN 200630Z 06011KT 010V080 9999 VCSH FEW020 SCT035 BKN045 22/18 Q1018 NOSIG RMK A3007=

站台狀態:Online
最後更新:2022-01-20 21:30:01